Time;durP1;ratioP1;P1;durP2;ratioP2;P2;SDS_P1;SDS_P2;PMS_P1;PMS_P2;Temp;Humidity;BMP_temperature;BMP_pressure;BME280_temperature;BME280_humidity;BME280_pressure;Samples;Min_cycle;Max_cycle;Signal;HPM_P1;HPM_P2
2021/12/01 00:00:20;;;;;;;16.92;3.00;;;10.20;99.90;;;;;;4977043;28;20101;-85
2021/12/01 00:02:52;;;;;;;17.80;3.05;;;10.30;99.90;;;;;;4977566;28;20111;-85
2021/12/01 00:05:20;;;;;;;11.63;2.80;;;10.40;99.90;;;;;;4977620;28;20053;-85
2021/12/01 00:07:47;;;;;;;20.58;3.47;;;10.30;99.90;;;;;;4977409;28;20051;-85
2021/12/01 00:10:14;;;;;;;12.70;2.75;;;10.30;99.90;;;;;;4977363;28;20070;-85
2021/12/01 00:12:41;;;;;;;15.98;2.80;;;10.30;99.90;;;;;;4977050;28;20461;-85
2021/12/01 00:15:10;;;;;;;22.60;3.95;;;10.20;99.90;;;;;;4977126;28;20047;-84
2021/12/01 00:17:38;;;;;;;20.50;3.58;;;10.20;99.90;;;;;;4976997;28;20117;-85
2021/12/01 00:20:08;;;;;;;17.27;2.55;;;10.20;99.90;;;;;;4977022;28;20461;-85
2021/12/01 00:22:35;;;;;;;23.15;3.60;;;10.10;99.90;;;;;;4976732;28;20050;-84
2021/12/01 00:25:03;;;;;;;16.88;2.63;;;10.00;99.90;;;;;;4977197;28;20050;-85
2021/12/01 00:27:30;;;;;;;16.60;2.83;;;10.00;99.90;;;;;;4976575;28;20047;-85
2021/12/01 00:29:57;;;;;;;24.00;4.15;;;10.00;99.90;;;;;;4977160;28;20042;-85
2021/12/01 00:32:26;;;;;;;18.83;2.70;;;10.00;99.90;;;;;;4977100;28;20043;-86
2021/12/01 00:34:53;;;;;;;18.70;2.80;;;10.00;99.90;;;;;;4977024;28;20481;-85
2021/12/01 00:37:20;;;;;;;16.48;2.92;;;9.90;99.90;;;;;;4976980;28;20055;-85
2021/12/01 00:39:48;;;;;;;23.83;4.07;;;9.90;99.90;;;;;;4976859;28;20498;-85
2021/12/01 00:42:15;;;;;;;20.90;3.88;;;9.80;99.90;;;;;;4976888;28;20129;-85
2021/12/01 00:44:47;;;;;;;24.35;4.95;;;9.80;99.90;;;;;;4976845;28;20047;-85
2021/12/01 00:47:14;;;;;;;18.85;3.17;;;9.80;99.90;;;;;;4976755;28;20434;-85
2021/12/01 00:49:43;;;;;;;18.70;2.67;;;9.70;99.90;;;;;;4976751;28;20054;-84
2021/12/01 00:52:10;;;;;;;16.42;3.65;;;9.70;99.90;;;;;;4976138;28;20102;-85
2021/12/01 00:54:37;;;;;;;14.98;4.00;;;9.70;99.90;;;;;;4976714;28;20047;-85
2021/12/01 00:57:05;;;;;;;20.75;3.58;;;9.70;99.90;;;;;;4976154;28;20072;-84
2021/12/01 00:59:34;;;;;;;13.98;2.67;;;9.60;99.90;;;;;;4976537;28;20047;-85
2021/12/01 01:02:01;;;;;;;11.98;2.58;;;9.60;99.90;;;;;;4976342;28;20050;-84
2021/12/01 01:04:28;;;;;;;20.02;3.15;;;9.50;99.90;;;;;;4976047;28;20042;-85
2021/12/01 01:06:56;;;;;;;17.67;3.50;;;9.40;99.90;;;;;;4976509;28;20046;-85
2021/12/01 01:09:30;;;;;;;18.27;3.57;;;9.40;99.90;;;;;;4976254;28;20059;-84
2021/12/01 01:17:37;;;;;;;17.48;3.00;;;9.30;99.90;;;;;;4975940;28;20548;-85
2021/12/01 01:20:07;;;;;;;21.15;3.00;;;9.30;99.90;;;;;;4976352;28;20129;-85
2021/12/01 01:22:35;;;;;;;13.40;3.17;;;9.30;99.90;;;;;;4975956;28;20485;-84
2021/12/01 01:25:03;;;;;;;16.55;3.85;;;9.30;99.90;;;;;;4976218;28;20527;-84
2021/12/01 01:27:30;;;;;;;20.35;3.10;;;9.20;99.90;;;;;;4975671;28;20093;-85
2021/12/01 01:29:57;;;;;;;21.52;3.80;;;9.20;99.90;;;;;;4975504;28;20074;-84
2021/12/01 01:32:24;;;;;;;17.75;3.80;;;9.10;99.90;;;;;;4974721;28;20047;-85
2021/12/01 01:34:51;;;;;;;19.13;3.75;;;9.10;99.90;;;;;;4975973;28;20102;-84
2021/12/01 01:37:18;;;;;;;23.58;5.05;;;9.10;99.90;;;;;;4975602;28;20442;-85
2021/12/01 01:39:47;;;;;;;20.83;2.90;;;9.10;99.90;;;;;;4975498;28;20058;-85
2021/12/01 01:42:14;;;;;;;17.02;3.75;;;9.20;99.90;;;;;;4975633;28;20055;-85
2021/12/01 01:44:41;;;;;;;20.60;3.25;;;9.10;99.90;;;;;;4975481;28;20485;-84
2021/12/01 01:47:08;;;;;;;16.98;3.22;;;9.10;99.90;;;;;;4975186;28;20050;-84
2021/12/01 01:49:43;;;;;;;26.95;3.95;;;8.90;99.90;;;;;;4975612;28;20050;-84
2021/12/01 01:52:10;;;;;;;12.15;3.08;;;8.90;99.90;;;;;;4975330;28;20066;-85
2021/12/01 01:54:37;;;;;;;13.95;2.65;;;8.90;99.90;;;;;;4975634;28;20047;-85
2021/12/01 01:57:06;;;;;;;13.18;2.05;;;8.80;99.90;;;;;;4975496;28;20166;-85
2021/12/01 01:59:33;;;;;;;12.43;1.98;;;8.80;99.90;;;;;;4975219;28;20505;-84
2021/12/01 02:02:01;;;;;;;9.70;1.73;;;8.70;99.90;;;;;;4974884;28;20094;-84
2021/12/01 02:04:33;;;;;;;3.35;0.50;;;8.60;99.90;;;;;;4974464;28;20061;-85
2021/12/01 02:07:01;;;;;;;8.95;1.70;;;8.50;99.90;;;;;;4974823;28;20433;-84
2021/12/01 02:09:28;;;;;;;7.65;1.10;;;8.50;99.90;;;;;;4974740;28;20124;-84
2021/12/01 02:11:58;;;;;;;10.57;1.23;;;8.40;99.90;;;;;;4974764;28;20046;-85
2021/12/01 02:14:28;;;;;;;6.18;1.15;;;8.40;99.90;;;;;;4974746;28;20125;-84
2021/12/01 02:16:56;;;;;;;9.57;2.58;;;8.30;99.90;;;;;;4974973;28;20051;-84
2021/12/01 02:19:23;;;;;;;7.30;1.02;;;8.30;99.90;;;;;;4974819;28;20503;-85
2021/12/01 02:21:52;;;;;;;10.38;1.63;;;8.30;99.90;;;;;;4975011;28;20047;-85
2021/12/01 02:24:22;;;;;;;9.75;1.80;;;8.30;99.90;;;;;;4974554;28;20046;-84
2021/12/01 02:26:51;;;;;;;6.35;1.35;;;8.30;99.90;;;;;;4975248;28;20043;-84
2021/12/01 02:29:20;;;;;;;6.80;1.70;;;8.30;99.90;;;;;;4974559;28;20054;-84
2021/12/01 02:31:48;;;;;;;7.60;1.17;;;8.30;99.90;;;;;;4974740;28;20086;-84
2021/12/01 02:34:18;;;;;;;7.00;1.00;;;8.20;99.90;;;;;;4975116;28;20134;-84
2021/12/01 02:36:47;;;;;;;7.05;1.10;;;8.10;99.90;;;;;;4975025;28;20051;-84
2021/12/01 02:39:17;;;;;;;11.73;1.40;;;8.00;99.90;;;;;;4974988;28;20129;-84
2021/12/01 02:41:46;;;;;;;14.23;2.55;;;8.00;99.90;;;;;;4974564;28;20501;-85
2021/12/01 02:44:16;;;;;;;6.65;0.93;;;8.00;99.90;;;;;;4974737;28;20051;-84
2021/12/01 02:46:44;;;;;;;18.63;2.67;;;7.90;99.90;;;;;;4974367;28;20630;-85
2021/12/01 02:49:11;;;;;;;7.97;1.63;;;7.90;99.90;;;;;;4974578;28;20055;-84
2021/12/01 02:51:39;;;;;;;11.30;1.90;;;7.80;99.90;;;;;;4974281;28;20395;-84
2021/12/01 02:54:08;;;;;;;10.00;1.23;;;7.80;99.90;;;;;;4974435;28;20101;-84
2021/12/01 02:56:37;;;;;;;5.60;1.40;;;7.70;99.90;;;;;;4974550;28;20050;-85
2021/12/01 02:59:05;;;;;;;;;;;7.70;99.90;;;;;;4975101;28;20466;-85
2021/12/01 03:01:32;;;;;;;8.52;1.33;;;7.80;99.90;;;;;;4974463;28;19985;-84
2021/12/01 03:04:00;;;;;;;11.18;1.63;;;7.70;99.90;;;;;;4974469;28;20048;-84
2021/12/01 03:06:28;;;;;;;6.03;1.73;;;7.70;99.90;;;;;;4974450;28;20050;-84
2021/12/01 03:08:57;;;;;;;14.98;1.65;;;7.70;99.90;;;;;;4974068;28;20046;-84
2021/12/01 03:11:25;;;;;;;10.40;1.73;;;7.70;99.90;;;;;;4974397;28;20055;-84
2021/12/01 03:13:54;;;;;;;12.73;1.90;;;7.70;99.90;;;;;;4974312;28;20050;-85
2021/12/01 03:16:21;;;;;;;12.88;2.30;;;7.70;99.90;;;;;;4974466;28;20466;-85
2021/12/01 03:18:48;;;;;;;8.48;1.30;;;7.70;99.90;;;;;;4977725;28;20489;-84
2021/12/01 03:21:15;;;;;;;12.23;1.38;;;7.70;99.90;;;;;;4977950;28;20109;-85
2021/12/01 03:23:43;;;;;;;13.77;2.03;;;7.70;99.90;;;;;;4977881;28;20051;-84
2021/12/01 03:26:11;;;;;;;6.78;1.27;;;7.70;99.90;;;;;;4977768;28;20090;-84
2021/12/01 03:28:39;;;;;;;10.25;1.13;;;7.70;99.90;;;;;;4977695;28;20125;-85
2021/12/01 03:31:08;;;;;;;7.68;1.33;;;7.70;99.90;;;;;;4977030;28;20095;-85
2021/12/01 03:33:35;;;;;;;9.35;1.08;;;7.70;99.90;;;;;;4977711;28;20413;-85
2021/12/01 03:36:03;;;;;;;9.82;1.00;;;7.70;99.90;;;;;;4977524;28;20449;-85
2021/12/01 03:38:30;;;;;;;7.63;1.20;;;7.70;99.90;;;;;;4977515;28;20504;-85
2021/12/01 03:40:59;;;;;;;8.43;1.30;;;7.70;99.90;;;;;;4977437;28;20136;-84
2021/12/01 03:43:26;;;;;;;4.68;1.17;;;7.60;99.90;;;;;;4977325;28;20047;-84
2021/12/01 03:45:54;;;;;;;5.60;1.02;;;7.60;99.90;;;;;;4977463;28;20422;-84
2021/12/01 03:48:23;;;;;;;4.30;0.93;;;7.60;99.90;;;;;;4977269;28;20055;-84
2021/12/01 03:50:51;;;;;;;7.18;1.17;;;7.60;99.90;;;;;;4975550;28;20039;-85
2021/12/01 03:53:20;;;;;;;9.23;0.80;;;7.60;99.90;;;;;;4977062;28;20070;-84
2021/12/01 03:55:47;;;;;;;3.85;0.70;;;7.60;99.90;;;;;;4977147;28;20043;-85
2021/12/01 03:58:14;;;;;;;9.85;1.33;;;7.60;99.90;;;;;;4976913;28;20090;-84
2021/12/01 04:00:42;;;;;;;6.75;1.20;;;7.60;99.90;;;;;;4976655;28;20526;-84
2021/12/01 04:03:08;;;;;;;8.98;1.35;;;7.60;99.90;;;;;;4976890;28;20054;-84
2021/12/01 04:05:37;;;;;;;4.88;0.90;;;7.70;99.90;;;;;;4977277;28;20082;-84
2021/12/01 04:08:07;;;;;;;2.20;0.70;;;7.60;99.90;;;;;;4977268;28;20097;-85
2021/12/01 04:10:34;;;;;;;4.45;0.70;;;7.60;99.90;;;;;;4977224;28;20047;-85
2021/12/01 04:13:01;;;;;;;7.32;0.77;;;7.60;99.90;;;;;;4976916;28;20046;-85
2021/12/01 04:15:28;;;;;;;4.40;0.60;;;7.60;99.90;;;;;;4977069;28;20047;-84
2021/12/01 04:17:55;;;;;;;3.15;0.60;;;7.60;99.90;;;;;;4976537;28;20132;-85
2021/12/01 04:20:22;;;;;;;7.82;0.90;;;7.50;99.90;;;;;;4976869;28;20053;-84
2021/12/01 04:22:51;;;;;;;6.13;0.70;;;7.50;99.90;;;;;;4976335;28;20453;-84
2021/12/01 04:25:18;;;;;;;5.53;0.80;;;7.50;99.90;;;;;;4976553;28;20058;-84
2021/12/01 04:27:45;;;;;;;5.90;0.63;;;7.50;99.90;;;;;;4976293;28;20142;-84
2021/12/01 04:30:16;;;;;;;9.95;0.80;;;7.50;99.90;;;;;;4976887;28;20126;-84
2021/12/01 04:32:43;;;;;;;4.93;1.00;;;7.60;99.90;;;;;;4975605;28;20082;-84
2021/12/01 04:35:10;;;;;;;13.93;1.02;;;7.60;99.90;;;;;;4977074;28;20053;-85
2021/12/01 04:37:38;;;;;;;10.07;1.38;;;7.60;99.90;;;;;;4977041;28;20050;-85
2021/12/01 04:40:09;;;;;;;14.15;1.20;;;7.60;99.90;;;;;;4977003;28;20130;-85
2021/12/01 04:42:36;;;;;;;10.93;1.38;;;7.60;99.90;;;;;;4976702;28;20082;-84
2021/12/01 04:45:04;;;;;;;8.90;1.38;;;7.70;99.90;;;;;;4976808;28;20073;-84
2021/12/01 04:47:37;;;;;;;10.48;1.58;;;7.70;99.90;;;;;;4976345;28;20051;-84
2021/12/01 04:50:04;;;;;;;5.22;0.95;;;7.60;99.90;;;;;;4976794;28;20251;-85
2021/12/01 04:52:31;;;;;;;8.43;1.58;;;7.60;99.90;;;;;;4976586;28;20105;-84
2021/12/01 04:54:58;;;;;;;5.53;1.08;;;7.50;99.90;;;;;;4976398;28;20047;-84
2021/12/01 04:57:27;;;;;;;6.40;0.95;;;7.50;99.90;;;;;;4976410;28;20086;-84
2021/12/01 04:59:54;;;;;;;8.13;1.77;;;7.50;99.90;;;;;;4976504;28;20170;-84
2021/12/01 05:02:21;;;;;;;15.68;1.52;;;7.70;99.90;;;;;;4976494;28;20050;-84
2021/12/01 05:04:47;;;;;;;10.15;2.20;;;7.80;99.90;;;;;;4976421;28;20047;-84
2021/12/01 05:07:15;;;;;;;22.75;2.88;;;7.90;99.90;;;;;;4976220;28;20497;-84
2021/12/01 05:09:42;;;;;;;13.90;2.40;;;8.00;99.90;;;;;;4976115;28;20047;-84
2021/12/01 05:12:11;;;;;;;19.25;3.30;;;8.10;99.90;;;;;;4976361;28;20053;-84
2021/12/01 05:14:41;;;;;;;19.90;4.10;;;8.10;99.90;;;;;;4975948;28;20051;-84
2021/12/01 05:17:08;;;;;;;;;;;8.20;99.90;;;;;;4975397;28;20110;-84
2021/12/01 05:19:35;;;;;;;21.75;3.50;;;8.30;99.90;;;;;;4976033;28;19977;-84
2021/12/01 05:22:03;;;;;;;30.45;5.32;;;8.30;99.90;;;;;;4976009;28;20086;-84
2021/12/01 05:24:30;;;;;;;24.20;4.20;;;8.30;99.90;;;;;;4975850;28;20047;-83
2021/12/01 05:26:57;;;;;;;27.90;3.65;;;8.40;99.90;;;;;;4976228;28;20046;-84
2021/12/01 05:29:25;;;;;;;21.58;3.33;;;8.40;99.90;;;;;;4976202;28;20050;-84
2021/12/01 05:31:54;;;;;;;25.33;4.18;;;8.50;99.90;;;;;;4975057;28;20548;-84
2021/12/01 05:34:21;;;;;;;23.60;3.42;;;8.50;99.90;;;;;;4976005;28;20457;-84
2021/12/01 05:36:48;;;;;;;29.15;4.35;;;8.50;99.90;;;;;;4975716;28;20051;-84
2021/12/01 05:39:16;;;;;;;19.92;4.40;;;8.50;99.90;;;;;;4975050;28;20069;-84
2021/12/01 05:41:43;;;;;;;27.30;3.70;;;8.50;99.90;;;;;;4975961;28;20105;-84
2021/12/01 05:44:10;;;;;;;31.60;5.35;;;8.60;99.90;;;;;;4975824;28;20054;-83
2021/12/01 05:46:38;;;;;;;33.80;7.15;;;8.60;99.90;;;;;;4975808;28;20456;-84
2021/12/01 05:49:06;;;;;;;42.40;6.82;;;8.60;99.90;;;;;;4975648;28;20054;-86
2021/12/01 05:51:33;;;;;;;34.80;6.43;;;8.60;99.90;;;;;;4975808;28;20078;-85
2021/12/01 05:54:01;;;;;;;41.53;6.72;;;8.70;99.90;;;;;;4975562;28;20094;-84
2021/12/01 05:56:28;;;;;;;27.98;4.65;;;8.70;99.90;;;;;;4975375;28;20505;-84
2021/12/01 05:58:55;;;;;;;37.45;5.18;;;8.70;99.90;;;;;;4975629;28;20058;-84
2021/12/01 06:01:22;;;;;;;28.80;4.68;;;8.70;99.90;;;;;;4975174;28;20820;-84
2021/12/01 06:03:49;;;;;;;30.95;6.03;;;8.60;99.90;;;;;;4975204;28;20105;-84
2021/12/01 06:06:17;;;;;;;31.63;5.30;;;8.50;99.90;;;;;;4975285;28;20521;-84
2021/12/01 06:08:44;;;;;;;29.40;5.53;;;8.50;99.90;;;;;;4975148;28;20090;-84
2021/12/01 06:11:11;;;;;;;19.58;4.55;;;8.60;99.90;;;;;;4975610;28;20105;-85
2021/12/01 06:13:40;;;;;;;34.83;5.13;;;8.50;99.90;;;;;;4975203;28;20405;-84
2021/12/01 06:16:07;;;;;;;17.35;3.10;;;8.50;99.90;;;;;;4975126;28;20465;-85
2021/12/01 06:18:34;;;;;;;25.83;3.50;;;8.50;99.90;;;;;;4974733;28;20472;-84
2021/12/01 06:21:02;;;;;;;14.15;2.60;;;8.50;99.90;;;;;;4974951;28;20117;-84
2021/12/01 06:23:31;;;;;;;19.20;3.00;;;8.40;99.90;;;;;;4974629;28;20449;-84
2021/12/01 06:25:58;;;;;;;29.13;3.83;;;8.40;99.90;;;;;;4974842;28;20137;-83
2021/12/01 06:28:25;;;;;;;18.63;2.90;;;8.40;99.90;;;;;;4974217;28;20090;-83
2021/12/01 06:30:52;;;;;;;32.72;5.65;;;8.40;99.90;;;;;;4974507;28;20055;-83
2021/12/01 06:33:19;;;;;;;26.52;4.45;;;8.40;99.90;;;;;;4974192;28;20050;-85
2021/12/01 06:35:49;;;;;;;18.02;3.65;;;8.50;99.90;;;;;;4974488;28;20618;-84
2021/12/01 06:38:16;;;;;;;23.83;4.78;;;8.40;99.90;;;;;;4974977;28;20078;-84
2021/12/01 06:40:45;;;;;;;22.27;3.75;;;8.40;99.90;;;;;;4974667;28;20090;-84
2021/12/01 06:43:12;;;;;;;28.58;4.80;;;8.30;99.90;;;;;;4975052;28;20047;-86
2021/12/01 06:45:39;;;;;;;31.88;4.65;;;8.40;99.90;;;;;;4974773;28;20047;-84
2021/12/01 06:48:07;;;;;;;20.63;4.30;;;8.30;99.90;;;;;;4974726;28;20082;-84
2021/12/01 06:50:34;;;;;;;24.08;3.92;;;8.30;99.90;;;;;;4975875;28;20505;-84
2021/12/01 06:53:01;;;;;;;22.90;4.32;;;8.30;99.90;;;;;;4978871;28;20074;-86
2021/12/01 06:55:28;;;;;;;22.98;4.82;;;8.30;99.90;;;;;;4978490;28;20043;-84
2021/12/01 06:57:57;;;;;;;24.80;3.47;;;8.30;99.90;;;;;;4978475;28;20038;-84
2021/12/01 07:00:25;;;;;;;27.27;5.78;;;8.20;99.90;;;;;;4978478;28;20058;-87
2021/12/01 07:02:52;;;;;;;25.02;4.60;;;8.30;99.90;;;;;;4978402;28;20413;-85
2021/12/01 07:05:19;;;;;;;24.83;4.65;;;8.30;99.90;;;;;;4978464;28;20089;-86
2021/12/01 07:07:46;;;;;;;19.88;4.65;;;8.30;99.90;;;;;;4978633;28;20082;-85
2021/12/01 07:10:15;;;;;;;20.35;4.60;;;8.30;99.90;;;;;;4977924;28;20050;-86
2021/12/01 07:12:43;;;;;;;26.77;4.32;;;8.20;99.90;;;;;;4977833;28;20489;-86
2021/12/01 07:15:13;;;;;;;26.38;5.13;;;8.20;99.90;;;;;;4978095;28;20046;-86
2021/12/01 07:17:40;;;;;;;18.73;3.38;;;8.20;99.90;;;;;;4977715;28;20058;-85
2021/12/01 07:20:08;;;;;;;23.00;3.75;;;8.20;99.90;;;;;;4978267;28;20082;-85
2021/12/01 07:22:37;;;;;;;26.63;4.20;;;8.20;99.90;;;;;;4977655;28;20050;-85
2021/12/01 07:25:05;;;;;;;16.92;4.53;;;8.10;99.90;;;;;;4977716;28;20417;-85
2021/12/01 07:27:32;;;;;;;17.67;3.60;;;8.10;99.90;;;;;;4977921;28;20109;-85
2021/12/01 07:29:59;;;;;;;19.95;4.78;;;8.00;99.90;;;;;;4978157;28;20050;-86
2021/12/01 07:32:27;;;;;;;26.05;4.30;;;8.00;99.90;;;;;;4977849;28;20051;-85
2021/12/01 07:34:56;;;;;;;22.10;4.43;;;8.00;99.90;;;;;;4978183;28;20058;-85
2021/12/01 07:37:23;;;;;;;31.00;4.43;;;8.00;99.90;;;;;;4978095;28;20082;-85
2021/12/01 07:39:51;;;;;;;29.17;4.93;;;8.00;99.90;;;;;;4976695;28;20047;-84
2021/12/01 07:42:18;;;;;;;21.10;3.30;;;8.00;99.90;;;;;;4977424;28;20053;-84
2021/12/01 07:44:46;;;;;;;24.42;3.72;;;8.00;99.90;;;;;;4977964;28;20097;-86
2021/12/01 07:47:13;;;;;;;25.58;3.25;;;8.00;99.90;;;;;;4977059;28;20071;-86
2021/12/01 07:49:42;;;;;;;28.33;5.22;;;8.00;99.90;;;;;;4977556;28;20090;-84
2021/12/01 07:52:10;;;;;;;26.50;4.65;;;8.00;99.90;;;;;;4977282;28;20047;-83
2021/12/01 07:54:39;;;;;;;21.65;3.40;;;8.10;99.90;;;;;;4978138;28;20094;-84
2021/12/01 07:57:07;;;;;;;15.65;3.67;;;8.10;99.90;;;;;;4976268;28;20101;-84
2021/12/01 07:59:34;;;;;;;19.05;3.38;;;8.10;99.90;;;;;;4958545;28;20382;-84
2021/12/01 08:02:01;;;;;;;28.65;4.28;;;8.10;99.90;;;;;;4957512;28;20051;-84
2021/12/01 08:04:28;;;;;;;21.85;3.00;;;8.10;99.90;;;;;;4959119;28;20079;-84
2021/12/01 08:06:56;;;;;;;17.30;3.47;;;8.00;99.90;;;;;;4959647;28;20517;-84
2021/12/01 08:09:25;;;;;;;17.83;3.53;;;8.00;99.90;;;;;;4957371;28;20178;-84
2021/12/01 08:11:53;;;;;;;18.73;3.88;;;8.00;99.90;;;;;;4957445;28;20293;-85
2021/12/01 08:14:22;;;;;;;21.02;4.38;;;7.90;99.90;;;;;;4957508;28;20102;-84
2021/12/01 08:16:50;;;;;;;21.30;3.28;;;7.90;99.90;;;;;;4957000;28;20090;-85
2021/12/01 08:19:17;;;;;;;14.10;2.95;;;7.90;99.90;;;;;;4958237;28;20059;-85
2021/12/01 08:21:47;;;;;;;20.33;3.58;;;7.90;99.90;;;;;;4958181;28;20098;-83
2021/12/01 08:24:16;;;;;;;19.10;3.20;;;7.90;99.90;;;;;;4957798;28;20059;-86
2021/12/01 08:26:44;;;;;;;21.73;4.70;;;8.00;99.90;;;;;;4957513;28;20494;-86
2021/12/01 08:29:12;;;;;;;16.63;2.90;;;7.50;99.90;;;;;;4957782;28;20125;-86
2021/12/01 08:31:40;;;;;;;16.20;3.78;;;8.00;99.90;;;;;;4969964;28;20117;-83
2021/12/01 08:34:07;;;;;;;17.30;4.03;;;7.90;99.90;;;;;;4977789;28;20050;-84
2021/12/01 08:36:34;;;;;;;21.88;4.85;;;7.90;99.90;;;;;;4975739;28;20465;-84
2021/12/01 08:39:02;;;;;;;29.83;3.92;;;7.80;99.90;;;;;;4976322;28;20055;-84
2021/12/01 08:41:30;;;;;;;24.90;5.18;;;7.80;99.90;;;;;;4975438;28;20054;-88
2021/12/01 08:43:57;;;;;;;20.70;3.67;;;7.80;99.90;;;;;;4967795;28;20050;-84
2021/12/01 08:46:24;;;;;;;24.60;4.07;;;8.00;99.90;;;;;;4959845;28;20047;-84
2021/12/01 08:48:51;;;;;;;16.35;4.55;;;7.90;99.90;;;;;;4975197;28;20093;-86
2021/12/01 08:51:18;;;;;;;17.55;3.92;;;7.90;99.90;;;;;;4975222;28;20378;-84
2021/12/01 08:53:45;;;;;;;18.48;3.38;;;7.90;99.90;;;;;;4964902;28;20051;-85
2021/12/01 08:56:12;;;;;;;29.08;3.55;;;7.90;99.90;;;;;;4964056;28;20047;-86
2021/12/01 08:58:41;;;;;;;22.55;4.70;;;8.00;99.90;;;;;;4972512;28;20055;-83
2021/12/01 09:01:08;;;;;;;24.85;3.83;;;7.90;99.90;;;;;;4949582;28;20509;-83
2021/12/01 09:03:36;;;;;;;29.55;4.25;;;7.90;99.90;;;;;;4964024;28;20047;-85
2021/12/01 09:06:04;;;;;;;30.90;6.07;;;7.00;99.90;;;;;;4962890;28;20485;-83
2021/12/01 09:08:31;;;;;;;17.08;4.32;;;8.00;99.90;;;;;;4952800;28;20070;-84
2021/12/01 09:11:02;;;;;;;18.95;3.20;;;8.00;99.90;;;;;;4954012;28;20575;-84
2021/12/01 09:13:31;;;;;;;22.73;3.40;;;8.00;99.90;;;;;;4956524;28;20042;-83
2021/12/01 09:16:00;;;;;;;14.82;3.35;;;8.00;99.90;;;;;;4970044;28;20043;-84
2021/12/01 09:18:30;;;;;;;12.77;3.03;;;8.10;99.90;;;;;;4967560;28;20084;-85
2021/12/01 09:20:57;;;;;;;17.42;3.30;;;8.10;99.90;;;;;;4941686;28;20873;-84
2021/12/01 09:23:24;;;;;;;22.40;4.03;;;8.20;99.90;;;;;;4881927;28;20047;-84
2021/12/01 09:25:52;;;;;;;20.42;3.60;;;8.30;99.90;;;;;;4884128;28;21571;-83
2021/12/01 09:28:22;;;;;;;19.75;3.42;;;8.30;99.90;;;;;;4871873;28;20062;-81
2021/12/01 09:30:52;;;;;;;13.30;2.47;;;8.30;99.90;;;;;;4871444;28;20145;-85
2021/12/01 09:33:29;;;;;;;15.38;3.63;;;8.40;99.90;;;;;;4870332;28;20038;-83
2021/12/01 09:35:57;;;;;;;16.42;2.75;;;8.30;99.90;;;;;;4877851;28;20042;-84
2021/12/01 09:38:26;;;;;;;14.77;2.35;;;7.60;99.90;;;;;;4877233;28;20051;-83
2021/12/01 09:40:57;;;;;;;17.77;2.70;;;8.20;99.90;;;;;;4872697;28;20392;-84
2021/12/01 09:43:27;;;;;;;11.65;3.45;;;8.10;99.90;;;;;;4928580;28;20145;-84
2021/12/01 09:45:55;;;;;;;17.42;2.88;;;8.50;99.90;;;;;;4943673;28;20053;-84
2021/12/01 09:48:24;;;;;;;17.80;3.17;;;8.20;99.90;;;;;;4959989;28;20070;-85
2021/12/01 09:50:51;;;;;;;;;;;8.30;99.90;;;;;;4962965;28;20059;-85
2021/12/01 09:53:18;;;;;;;16.48;3.78;;;8.30;99.90;;;;;;4956392;28;19968;-84
2021/12/01 09:55:46;;;;;;;21.80;2.67;;;8.30;99.90;;;;;;4960067;28;20109;-85
2021/12/01 09:58:16;;;;;;;16.15;3.00;;;8.30;99.90;;;;;;4958433;28;20047;-84
2021/12/01 10:00:45;;;;;;;13.73;2.85;;;8.30;99.90;;;;;;4959826;28;20398;-85
2021/12/01 10:03:12;;;;;;;16.98;2.70;;;8.20;99.90;;;;;;4966024;28;20078;-84
2021/12/01 10:06:04;;;;;;;16.20;2.92;;;8.30;99.90;;;;;;4913836;28;20067;-85
2021/12/01 10:08:38;;;;;;;16.60;2.55;;;8.30;99.90;;;;;;4876932;28;20058;-83
2021/12/01 10:11:07;;;;;;;13.60;2.53;;;8.30;99.90;;;;;;4872962;28;20050;-86
2021/12/01 10:13:40;;;;;;;22.42;2.42;;;8.20;99.90;;;;;;4871400;28;20340;-84
2021/12/01 10:16:09;;;;;;;19.52;3.35;;;8.20;99.90;;;;;;4873376;28;20039;-87
2021/12/01 10:18:40;;;;;;;18.40;4.28;;;8.10;99.90;;;;;;4875488;28;20079;-86
2021/12/01 10:21:12;;;;;;;11.23;2.35;;;8.20;99.90;;;;;;4871260;28;20101;-84
2021/12/01 10:23:47;;;;;;;20.48;3.78;;;8.20;99.90;;;;;;4874697;28;20055;-82
2021/12/01 10:26:24;;;;;;;16.60;2.58;;;8.20;99.90;;;;;;4871286;28;20114;-84
2021/12/01 10:28:54;;;;;;;19.48;3.65;;;8.20;99.90;;;;;;4873876;28;20059;-84
2021/12/01 10:31:38;;;;;;;14.75;2.47;;;8.30;99.90;;;;;;4875509;28;20054;-85
2021/12/01 10:34:17;;;;;;;10.73;2.40;;;8.20;99.90;;;;;;4878281;28;21350;-84
2021/12/01 10:36:48;;;;;;;13.15;1.95;;;8.10;99.90;;;;;;4874964;28;20159;-84
2021/12/01 10:39:16;;;;;;;13.43;2.58;;;8.10;99.90;;;;;;4879556;28;20143;-83
2021/12/01 10:41:44;;;;;;;10.63;2.00;;;8.10;99.90;;;;;;4877255;28;20867;-83
2021/12/01 10:44:13;;;;;;;17.02;2.88;;;7.60;99.90;;;;;;4878603;28;20552;-84
2021/12/01 10:46:48;;;;;;;20.30;2.67;;;8.10;99.90;;;;;;4874553;28;20042;-84
2021/12/01 10:49:17;;;;;;;15.02;2.25;;;9.20;99.90;;;;;;4881686;28;20046;-84
2021/12/01 10:51:47;;;;;;;22.13;3.28;;;8.20;99.90;;;;;;4871813;28;20492;-85
2021/12/01 10:54:16;;;;;;;15.32;3.72;;;8.20;99.90;;;;;;4875573;28;21247;-83
2021/12/01 10:56:43;;;;;;;;;;;8.10;99.90;;;;;;4879557;28;20447;-83
2021/12/01 10:59:11;;;;;;;16.42;3.55;;;8.10;99.90;;;;;;4873959;28;20004;-85
2021/12/01 11:01:39;;;;;;;13.13;1.83;;;8.10;99.90;;;;;;4879270;28;20821;-83
2021/12/01 11:04:07;;;;;;;11.70;2.30;;;7.70;99.90;;;;;;4863632;28;21137;-82
2021/12/01 11:06:41;;;;;;;13.35;2.22;;;7.60;99.90;;;;;;4931324;28;20047;-84
2021/12/01 11:09:10;;;;;;;9.52;2.28;;;7.50;99.90;;;;;;4961824;28;20110;-83
2021/12/01 11:11:42;;;;;;;12.70;2.15;;;7.30;99.90;;;;;;4966429;28;20114;-84
2021/12/01 11:14:11;;;;;;;7.45;1.80;;;7.20;99.90;;;;;;4964032;28;20113;-85
2021/12/01 11:16:40;;;;;;;7.90;1.40;;;7.10;99.90;;;;;;4960673;28;20043;-85
2021/12/01 11:19:08;;;;;;;5.05;1.25;;;7.00;99.90;;;;;;4965503;28;20050;-85
2021/12/01 11:21:37;;;;;;;3.45;0.85;;;6.90;99.90;;;;;;4962009;28;20065;-85
2021/12/01 11:24:13;;;;;;;7.13;0.90;;;6.90;99.90;;;;;;4968963;28;20486;-84
2021/12/01 11:26:46;;;;;;;8.50;1.30;;;6.90;99.90;;;;;;4963660;28;20122;-86
2021/12/01 11:29:14;;;;;;;9.23;2.13;;;6.90;99.90;;;;;;4962460;28;20093;-86
2021/12/01 11:31:43;;;;;;;6.30;1.45;;;6.90;99.90;;;;;;4967792;28;20082;-85
2021/12/01 11:34:12;;;;;;;14.05;2.50;;;6.90;99.90;;;;;;4968733;28;20082;-85
2021/12/01 11:36:40;;;;;;;9.80;1.45;;;6.90;99.90;;;;;;4967735;28;20059;-86
2021/12/01 11:39:12;;;;;;;10.30;2.13;;;7.00;99.90;;;;;;4968514;28;20522;-86
2021/12/01 11:41:42;;;;;;;15.45;2.80;;;7.00;99.90;;;;;;4972832;28;20054;-91
2021/12/01 11:44:10;;;;;;;13.73;2.15;;;7.10;99.90;;;;;;4979132;28;20219;-90
2021/12/01 11:46:39;;;;;;;10.15;2.70;;;7.00;99.90;;;;;;4972114;28;20043;-90
2021/12/01 11:49:13;;;;;;;6.28;1.70;;;7.40;99.90;;;;;;4971675;28;20109;-91
2021/12/01 11:51:46;;;;;;;13.07;3.33;;;7.50;99.90;;;;;;4944592;28;20111;-88
2021/12/01 11:54:17;;;;;;;17.10;5.50;;;7.30;99.90;;;;;;4900769;28;20078;-88
2021/12/01 11:56:55;;;;;;;11.68;3.17;;;7.20;99.90;;;;;;4892180;28;20035;-88
2021/12/01 11:59:24;;;;;;;19.83;3.92;;;7.40;99.90;;;;;;4898412;28;21173;-90
2021/12/01 12:01:57;;;;;;;15.65;2.67;;;7.40;99.90;;;;;;4900769;28;20057;-91
2021/12/01 12:05:02;;;;;;;17.52;2.53;;;7.50;99.90;;;;;;4896527;28;20053;-92
2021/12/01 12:07:36;;;;;;;23.85;2.42;;;8.10;99.90;;;;;;4897087;28;21090;-89
2021/12/01 12:10:31;;;;;;;11.10;2.72;;;7.60;99.90;;;;;;4906964;28;20069;-90
2021/12/01 12:13:25;;;;;;;20.75;2.63;;;7.30;99.90;;;;;;4908891;28;20050;-90
2021/12/01 12:15:55;;;;;;;20.85;3.53;;;9.20;99.90;;;;;;4899298;28;20047;-91
2021/12/01 12:18:56;;;;;;;19.65;4.78;;;7.30;99.90;;;;;;4897529;28;20054;-87
2021/12/01 12:21:37;;;;;;;17.05;5.32;;;8.10;99.90;;;;;;4900428;28;20049;-89
2021/12/01 12:24:06;;;;;;;22.85;3.42;;;8.30;99.90;;;;;;4908885;28;20039;-90
2021/12/01 12:26:44;;;;;;;19.35;3.20;;;8.00;99.90;;;;;;4899210;28;20492;-89
2021/12/01 12:29:15;;;;;;;24.75;4.07;;;7.50;99.90;;;;;;4900615;28;20047;-88
2021/12/01 12:31:43;;;;;;;23.50;4.03;;;8.00;99.90;;;;;;4898986;28;20070;-88
2021/12/01 12:34:18;;;;;;;24.17;5.70;;;8.60;99.90;;;;;;4904111;28;20129;-92
2021/12/01 12:36:48;;;;;;;23.15;5.07;;;8.10;99.90;;;;;;4942562;28;20053;-91
2021/12/01 12:39:17;;;;;;;20.98;4.10;;;8.00;99.90;;;;;;4975828;28;20057;-91
2021/12/01 12:42:34;;;;;;;17.75;3.38;;;8.30;99.90;;;;;;4977436;28;20059;-94
2021/12/01 12:45:11;;;;;;;12.20;2.47;;;8.50;99.90;;;;;;4950634;28;20142;-90
2021/12/01 12:48:42;;;;;;;12.27;2.50;;;8.30;99.90;;;;;;5050071;23;20056;-91
2021/12/01 12:51:40;;;;;;;20.08;4.05;;;8.20;99.90;;;;;;5015835;28;20068;-92
2021/12/01 12:57:10;;;;;;;16.45;4.05;;;9.30;99.90;;;;;;4930371;29;20286;-92
2021/12/01 13:00:11;;;;;;;15.52;3.92;;;8.20;99.90;;;;;;5004896;28;20046;-91
2021/12/01 13:02:43;;;;;;;20.33;3.63;;;8.00;99.90;;;;;;5001831;28;20169;-91
2021/12/01 13:05:11;;;;;;;18.33;4.40;;;8.30;99.90;;;;;;5018285;28;20046;-91
2021/12/01 13:07:57;;;;;;;23.52;5.35;;;8.10;99.90;;;;;;5007233;28;20151;-92
2021/12/01 13:10:52;;;;;;;27.27;6.22;;;8.50;99.90;;;;;;5011622;28;20120;-92